K0CO

Empire

Empire, Colorado, USA
METAR K0CO 121842Z AUTO 33014G27KT 10SM CLR M10/M17 A2981 RMK AO2
Observed Flight Rules
Dec-12 @ 18:42 UTC (8 minutes ago) Visual Flight Rules
Wind Visibility Clouds
330° at 14 knots
 Gusting to 27 knots
10 miles
  • Clear skies
Temperatures Readings
Current -10°C / 14°F
Dewpoint -17°C / 1°F
Humidity 57%
Altimeter 29.81" Hg
Pressure 1009 hPa
Elevation 3807
METAR K0CO 121842Z AUTO 33014G27KT 10SM CLR M10/M17 A2981 RMK AO2
Observed Flight Rules
Dec-12 @ 18:42 UTC
(8 minutes ago)
VFR
Wind Visibility
330° at 14 knots
 Gusting to 27 knots
10 miles
Clouds
  • Clear skies
Temperature Dewpoint
-10°C / 14°F -17°C / 1°F
Humidity Altimeter Pressure
57% 29.81" Hg 1009 hPa